Alba, Texas
Current Conditions -  °F | °C
As of 1:15 PM on Tuesday 21 Oct 2014 (Local Time) from KJDD Reporting Station
Clear Clear  
Wind Chill: 77°   Ceiling: Unl
Heat Index: 79°   Visibility: 10mi
Dew Point: 57°   Wind: 5mph
Humidity: 50%   Direction: 150°SSE
Pressure: 30.1"   Gusts: NA
Location:  32.79°N, 95.63°W
Report Text: KJDD 211815Z AUTO 15004KT 10SM CLR 25/14 A3010 RMK AO2
Loading
Personal Weather Stations






























Interactive Weather Map
Tropical Storm Tracking
New forecast layout! Learn more

10-Day Weather Forecast

Advertisements
Track Severe Weather on mobile